createdAt,value
2018-04-29T00:00:38.403Z,16.90
2018-04-29T00:03:06.881Z,16.90
2018-04-29T00:05:35.137Z,17.00
2018-04-29T00:08:03.419Z,16.90
2018-04-29T00:10:31.664Z,16.90
2018-04-29T00:12:59.913Z,16.80
2018-04-29T00:15:28.192Z,16.80
2018-04-29T00:17:57.201Z,16.80
2018-04-29T00:20:25.453Z,16.80
2018-04-29T00:22:54.908Z,16.70
2018-04-29T00:25:23.216Z,16.70
2018-04-29T00:27:51.460Z,16.60
2018-04-29T00:30:19.728Z,16.60
2018-04-29T00:32:48.049Z,16.50
2018-04-29T00:35:16.456Z,16.40
2018-04-29T00:37:45.492Z,16.30
2018-04-29T00:40:13.753Z,16.30
2018-04-29T00:42:42.013Z,16.30
2018-04-29T00:45:10.662Z,16.40
2018-04-29T00:47:38.914Z,16.60
2018-04-29T00:50:07.148Z,16.70
2018-04-29T00:52:36.369Z,16.80
2018-04-29T00:55:04.621Z,16.70
2018-04-29T00:57:33.104Z,16.60
2018-04-29T01:00:03.134Z,16.50
2018-04-29T01:02:31.369Z,16.50
2018-04-29T01:04:59.613Z,16.50
2018-04-29T01:07:28.218Z,16.40
2018-04-29T01:09:56.461Z,16.40
2018-04-29T01:12:24.708Z,16.40
2018-04-29T01:14:53.553Z,16.40
2018-04-29T01:17:21.800Z,16.40
2018-04-29T01:19:50.060Z,16.40
2018-04-29T01:22:18.336Z,16.50
2018-04-29T01:24:46.598Z,16.60
2018-04-29T01:27:14.923Z,16.60
2018-04-29T01:29:43.614Z,16.50
2018-04-29T01:32:11.863Z,16.50
2018-04-29T01:34:40.284Z,16.50
2018-04-29T01:37:08.699Z,16.50
2018-04-29T01:39:36.926Z,16.50
2018-04-29T01:42:05.172Z,16.50
2018-04-29T01:44:33.952Z,16.50
2018-04-29T01:47:02.208Z,16.50
2018-04-29T01:49:31.221Z,16.50
2018-04-29T01:52:00.385Z,16.50
2018-04-29T01:54:28.636Z,16.50
2018-04-29T01:56:56.885Z,16.50
2018-04-29T01:59:25.372Z,16.40
2018-04-29T02:01:53.621Z,16.40
2018-04-29T02:04:21.864Z,16.30
2018-04-29T02:06:50.141Z,16.30
2018-04-29T02:09:18.399Z,16.30
2018-04-29T02:11:46.644Z,16.30
2018-04-29T02:14:14.971Z,16.30
2018-04-29T02:16:43.211Z,16.40
2018-04-29T02:19:11.461Z,16.40
2018-04-29T02:21:40.496Z,16.50
2018-04-29T02:24:08.737Z,16.50
2018-04-29T02:26:36.980Z,16.30
2018-04-29T02:29:05.240Z,16.10
2018-04-29T02:31:33.485Z,15.90
2018-04-29T02:34:02.738Z,15.80
2018-04-29T02:36:31.300Z,15.70
2018-04-29T02:38:59.540Z,15.80
2018-04-29T02:41:28.380Z,15.90
2018-04-29T02:43:56.649Z,16.00
2018-04-29T02:46:24.893Z,15.90
2018-04-29T02:48:53.137Z,15.80
2018-04-29T02:51:21.404Z,15.80
2018-04-29T02:53:49.657Z,15.70
2018-04-29T02:56:17.901Z,15.70
2018-04-29T02:58:46.548Z,15.70
2018-04-29T03:01:15.132Z,15.60
2018-04-29T03:03:45.106Z,15.30
2018-04-29T03:06:13.373Z,15.30
2018-04-29T03:08:42.869Z,15.30
2018-04-29T03:11:11.109Z,15.20
2018-04-29T03:13:41.566Z,15.30
2018-04-29T03:16:09.804Z,15.20
2018-04-29T03:18:38.056Z,15.30
2018-04-29T03:21:06.515Z,15.30
2018-04-29T03:23:34.768Z,15.20
2018-04-29T03:26:03.022Z,15.20
2018-04-29T03:28:31.301Z,15.20
2018-04-29T03:31:00.322Z,15.10
2018-04-29T03:33:28.563Z,15.10
2018-04-29T03:35:56.837Z,15.10
2018-04-29T03:38:25.097Z,15.00
2018-04-29T03:40:53.340Z,15.10
2018-04-29T03:43:24.028Z,15.10
2018-04-29T03:45:53.052Z,15.10
2018-04-29T03:48:21.302Z,15.10
2018-04-29T03:50:49.577Z,15.10
2018-04-29T03:53:17.825Z,15.00
2018-04-29T03:55:46.072Z,14.90
2018-04-29T03:58:26.451Z,14.90
2018-04-29T04:01:06.549Z,14.80
2018-04-29T04:03:44.040Z,14.80
2018-04-29T04:06:12.289Z,14.80
2018-04-29T04:08:40.532Z,14.90
2018-04-29T04:11:08.796Z,14.80
2018-04-29T04:13:37.045Z,14.70
2018-04-29T04:16:05.288Z,14.70
2018-04-29T04:18:34.561Z,14.70
2018-04-29T04:21:02.820Z,14.60
2018-04-29T04:23:31.076Z,14.70
2018-04-29T04:25:59.348Z,14.60
2018-04-29T04:28:28.385Z,14.70
2018-04-29T04:30:56.616Z,14.70
2018-04-29T04:33:24.897Z,14.60
2018-04-29T04:35:53.149Z,14.60
2018-04-29T04:38:21.860Z,14.60
2018-04-29T04:40:51.208Z,14.50
2018-04-29T04:43:19.540Z,14.40
2018-04-29T04:45:48.559Z,14.50
2018-04-29T04:48:16.837Z,14.50
2018-04-29T04:50:45.176Z,14.60
2018-04-29T04:53:13.340Z,14.60
2018-04-29T04:55:41.626Z,14.70
2018-04-29T04:58:09.898Z,14.70
2018-04-29T05:00:38.128Z,14.80
2018-04-29T05:03:06.616Z,14.80
2018-04-29T05:05:35.257Z,14.90
2018-04-29T05:08:05.272Z,15.00
2018-04-29T05:10:34.317Z,15.10
2018-04-29T05:13:02.585Z,15.10
2018-04-29T05:15:30.824Z,15.10
2018-04-29T05:17:59.651Z,15.10
2018-04-29T05:20:27.952Z,15.10
2018-04-29T05:22:56.201Z,15.10
2018-04-29T05:25:25.327Z,15.00
2018-04-29T05:27:53.573Z,14.90
2018-04-29T05:30:21.816Z,14.90
2018-04-29T05:32:50.862Z,14.90
2018-04-29T05:35:19.124Z,14.80
2018-04-29T05:37:47.353Z,14.80
2018-04-29T05:40:15.624Z,14.80
2018-04-29T05:42:43.871Z,14.90
2018-04-29T05:45:13.033Z,14.90
2018-04-29T05:47:41.524Z,14.90
2018-04-29T05:50:10.367Z,15.00
2018-04-29T05:52:38.604Z,15.00
2018-04-29T05:55:06.877Z,15.10
2018-04-29T05:57:35.182Z,15.20
2018-04-29T06:00:03.429Z,15.30
2018-04-29T06:02:31.697Z,15.50
2018-04-29T06:04:59.937Z,15.60
2018-04-29T06:07:28.428Z,15.80
2018-04-29T06:09:58.245Z,15.90
2018-04-29T06:12:26.480Z,15.80
2018-04-29T06:14:54.764Z,15.90
2018-04-29T06:17:23.073Z,15.90
2018-04-29T06:19:51.338Z,15.90
2018-04-29T06:22:20.361Z,16.00
2018-04-29T06:24:49.541Z,15.90
2018-04-29T06:27:18.557Z,16.00
2018-04-29T06:29:46.808Z,16.00
2018-04-29T06:32:15.640Z,16.00
2018-04-29T06:34:43.892Z,16.00
2018-04-29T06:37:12.136Z,16.10
2018-04-29T06:39:40.406Z,16.10
2018-04-29T06:42:08.815Z,16.10
2018-04-29T06:44:37.805Z,16.10
2018-04-29T06:47:06.851Z,16.20
2018-04-29T06:49:35.097Z,16.20
2018-04-29T06:52:03.345Z,16.40
2018-04-29T06:54:31.975Z,16.50
2018-04-29T06:57:00.229Z,16.60
2018-04-29T06:59:28.476Z,16.80
2018-04-29T07:01:56.748Z,16.90
2018-04-29T07:04:24.994Z,17.00
2018-04-29T07:06:54.344Z,17.10
2018-04-29T07:09:22.847Z,17.10
2018-04-29T07:11:51.093Z,17.20
2018-04-29T07:14:19.335Z,17.30
2018-04-29T07:16:48.527Z,17.30
2018-04-29T07:19:16.896Z,17.10
2018-04-29T07:21:45.153Z,17.00
2018-04-29T07:24:13.428Z,16.80
2018-04-29T07:26:42.687Z,16.70
2018-04-29T07:29:11.067Z,16.60
2018-04-29T07:31:39.341Z,16.70
2018-04-29T07:34:08.854Z,16.70
2018-04-29T07:36:37.154Z,16.70
2018-04-29T07:39:06.501Z,16.70
2018-04-29T07:41:34.749Z,16.70
2018-04-29T07:44:03.172Z,16.80
2018-04-29T07:46:31.625Z,16.80
2018-04-29T07:48:59.959Z,16.80
2018-04-29T07:51:28.968Z,16.90
2018-04-29T07:53:58.009Z,16.90
2018-04-29T07:56:26.253Z,16.90
2018-04-29T07:58:54.686Z,16.90
2018-04-29T08:01:23.137Z,16.90
2018-04-29T08:03:51.381Z,16.90
2018-04-29T08:06:19.633Z,16.90
2018-04-29T08:08:47.919Z,16.90
2018-04-29T08:11:17.209Z,16.90
2018-04-29T08:13:45.565Z,16.90
2018-04-29T08:16:13.973Z,17.10
2018-04-29T08:18:42.989Z,17.20
2018-04-29T08:21:11.316Z,17.20
2018-04-29T08:23:39.996Z,17.20
2018-04-29T08:26:08.228Z,17.20
2018-04-29T08:28:36.518Z,17.30
2018-04-29T08:31:04.865Z,17.30
2018-04-29T08:33:33.880Z,17.40
2018-04-29T08:36:02.206Z,17.40
2018-04-29T08:38:30.972Z,17.60
2018-04-29T08:41:00.200Z,17.70
2018-04-29T08:43:28.573Z,17.70
2018-04-29T08:45:57.487Z,17.70
2018-04-29T08:48:26.150Z,17.70
2018-04-29T08:50:54.324Z,17.80
2018-04-29T08:53:23.665Z,17.90
2018-04-29T08:55:52.096Z,18.00
2018-04-29T08:58:20.337Z,18.10
2018-04-29T09:00:48.596Z,18.20
2018-04-29T09:03:16.928Z,18.30
2018-04-29T09:05:45.087Z,18.70
2018-04-29T09:08:13.428Z,18.90
2018-04-29T09:10:41.691Z,19.00
2018-04-29T09:13:11.469Z,19.10
2018-04-29T09:15:40.464Z,19.10
2018-04-29T09:18:09.265Z,19.10
2018-04-29T09:20:37.629Z,19.10
2018-04-29T09:23:06.174Z,19.10
2018-04-29T09:25:34.402Z,19.10
2018-04-29T09:28:02.780Z,19.10
2018-04-29T09:30:31.540Z,19.20
2018-04-29T09:32:59.832Z,19.20
2018-04-29T09:35:28.255Z,19.30
2018-04-29T09:37:56.512Z,19.30
2018-04-29T09:40:25.022Z,19.40
2018-04-29T09:42:54.033Z,19.60
2018-04-29T09:45:25.444Z,19.60
2018-04-29T09:47:53.801Z,19.80
2018-04-29T09:50:22.052Z,19.90
2018-04-29T09:52:50.636Z,20.00
2018-04-29T09:55:19.484Z,20.00
2018-04-29T09:57:47.722Z,20.00
2018-04-29T10:00:15.988Z,20.00
2018-04-29T10:02:47.347Z,20.10
2018-04-29T10:05:16.689Z,20.10
2018-04-29T10:07:44.948Z,20.10
2018-04-29T10:10:13.567Z,20.20
2018-04-29T10:12:42.568Z,20.40
2018-04-29T10:15:11.065Z,20.40
2018-04-29T10:17:39.305Z,20.60
2018-04-29T10:20:08.320Z,20.80
2018-04-29T10:22:36.631Z,20.70
2018-04-29T10:25:05.068Z,20.80
2018-04-29T10:27:34.074Z,21.00
2018-04-29T10:30:02.360Z,21.00
2018-04-29T10:32:30.658Z,21.20
2018-04-29T10:34:58.845Z,21.30
2018-04-29T10:37:27.297Z,21.40
2018-04-29T10:39:55.541Z,21.50
2018-04-29T10:42:23.808Z,21.60
2018-04-29T10:44:52.078Z,21.70
2018-04-29T10:47:21.085Z,22.20
2018-04-29T10:49:50.107Z,22.50
2018-04-29T10:52:18.420Z,22.40
2018-04-29T10:54:46.661Z,22.90
2018-04-29T10:57:14.920Z,23.60
2018-04-29T10:59:43.636Z,24.70
2018-04-29T11:02:11.937Z,26.00
2018-04-29T11:04:40.186Z,27.00
2018-04-29T11:07:09.506Z,27.90
2018-04-29T11:09:37.728Z,28.70
2018-04-29T11:12:06.740Z,29.80
2018-04-29T11:14:35.016Z,29.70
2018-04-29T11:17:03.484Z,30.30
2018-04-29T11:19:32.503Z,31.20
2018-04-29T11:22:01.202Z,31.20
2018-04-29T11:24:29.440Z,31.50
2018-04-29T11:26:57.688Z,31.70
2018-04-29T11:29:25.975Z,32.10
2018-04-29T11:31:54.979Z,33.10
2018-04-29T11:34:24.040Z,33.50
2018-04-29T11:36:52.308Z,33.40
2018-04-29T11:39:20.566Z,33.90
2018-04-29T11:41:48.807Z,34.20
2018-04-29T11:44:18.149Z,34.90
2018-04-29T11:46:46.396Z,34.80
2018-04-29T11:49:14.660Z,35.30
2018-04-29T11:51:42.925Z,35.70
2018-04-29T11:54:11.937Z,35.90
2018-04-29T11:56:40.180Z,35.90
2018-04-29T11:59:08.446Z,36.30
2018-04-29T12:01:36.688Z,36.90
2018-04-29T12:04:04.929Z,37.10
2018-04-29T12:06:33.568Z,37.30
2018-04-29T12:09:01.804Z,37.70
2018-04-29T12:11:30.057Z,37.60
2018-04-29T12:13:58.329Z,37.90
2018-04-29T12:16:27.035Z,38.10
2018-04-29T12:18:56.945Z,38.30
2018-04-29T12:21:26.557Z,38.40
2018-04-29T12:23:55.576Z,38.50
2018-04-29T12:26:23.893Z,38.50
2018-04-29T12:28:52.651Z,38.50
2018-04-29T12:31:20.896Z,38.80
2018-04-29T12:33:49.141Z,38.90
2018-04-29T12:36:17.413Z,39.20
2018-04-29T12:38:45.692Z,39.50
2018-04-29T12:41:14.412Z,40.10
2018-04-29T12:43:42.780Z,40.50
2018-04-29T12:46:11.029Z,41.10
2018-04-29T12:48:39.268Z,41.40
2018-04-29T12:51:07.725Z,41.70
2018-04-29T12:53:36.736Z,42.10
2018-04-29T12:56:04.985Z,42.00
2018-04-29T12:58:33.261Z,42.20
2018-04-29T13:01:01.517Z,41.80
2018-04-29T13:03:29.760Z,41.50
2018-04-29T13:05:58.028Z,41.20
2018-04-29T13:08:26.385Z,40.90
2018-04-29T13:10:54.632Z,40.20
2018-04-29T13:13:22.967Z,39.40
2018-04-29T13:15:51.207Z,38.60
2018-04-29T13:18:20.225Z,38.00
2018-04-29T13:20:48.497Z,38.00
2018-04-29T13:23:16.748Z,38.60
2018-04-29T13:25:45.005Z,39.00
2018-04-29T13:28:13.348Z,39.20
2018-04-29T13:30:41.520Z,39.30
2018-04-29T13:33:09.765Z,39.50
2018-04-29T13:35:38.663Z,39.80
2018-04-29T13:38:07.084Z,40.10
2018-04-29T13:40:35.668Z,40.80
2018-04-29T13:43:03.916Z,41.30
2018-04-29T13:45:32.328Z,41.70
2018-04-29T13:48:00.573Z,42.10
2018-04-29T13:50:28.948Z,42.50
2018-04-29T13:52:57.197Z,42.80
2018-04-29T13:55:26.216Z,43.10
2018-04-29T13:57:54.928Z,43.00
2018-04-29T14:00:23.173Z,43.10
2018-04-29T14:02:51.412Z,43.40
2018-04-29T14:05:19.684Z,43.50
2018-04-29T14:07:47.935Z,43.60
2018-04-29T14:10:16.201Z,43.60
2018-04-29T14:12:45.256Z,43.70
2018-04-29T14:15:13.608Z,43.80
2018-04-29T14:17:41.858Z,44.20
2018-04-29T14:20:10.336Z,44.30
2018-04-29T14:22:38.816Z,44.20
2018-04-29T14:25:07.064Z,44.20
2018-04-29T14:27:35.324Z,44.10
2018-04-29T14:30:03.586Z,44.10
2018-04-29T14:32:31.840Z,44.20
2018-04-29T14:35:00.186Z,44.30
2018-04-29T14:37:28.603Z,44.40
2018-04-29T14:39:56.997Z,44.60
2018-04-29T14:42:25.484Z,44.60
2018-04-29T14:44:57.737Z,44.60
2018-04-29T14:47:26.029Z,44.60
2018-04-29T14:49:54.279Z,44.60
2018-04-29T14:52:22.949Z,44.60
2018-04-29T14:54:51.208Z,44.80
2018-04-29T14:57:19.640Z,44.70
2018-04-29T14:59:47.893Z,44.80
2018-04-29T15:02:16.279Z,44.80
2018-04-29T15:04:44.525Z,44.60
2018-04-29T15:07:12.779Z,44.60
2018-04-29T15:09:41.255Z,44.60
2018-04-29T15:12:10.262Z,44.90
2018-04-29T15:14:39.287Z,45.10
2018-04-29T15:17:07.604Z,45.10
2018-04-29T15:19:54.477Z,45.40
2018-04-29T15:22:22.819Z,45.40
2018-04-29T15:24:53.020Z,45.20
2018-04-29T15:27:21.486Z,45.20
2018-04-29T15:29:49.743Z,45.10
2018-04-29T15:32:18.331Z,45.10
2018-04-29T15:34:46.889Z,45.20
2018-04-29T15:37:15.224Z,45.10
2018-04-29T15:39:44.245Z,45.20
2018-04-29T15:42:12.500Z,45.20
2018-04-29T15:44:41.353Z,45.40
2018-04-29T15:47:09.576Z,45.30
2018-04-29T15:49:37.918Z,44.90
2018-04-29T15:52:06.936Z,44.80
2018-04-29T15:54:35.391Z,44.80
2018-04-29T15:57:03.773Z,44.90
2018-04-29T15:59:32.036Z,44.60
2018-04-29T16:02:00.725Z,44.40
2018-04-29T16:04:28.950Z,44.40
2018-04-29T16:06:58.405Z,44.50
2018-04-29T16:09:26.897Z,44.50
2018-04-29T16:11:55.145Z,44.30
2018-04-29T16:14:24.602Z,43.90
2018-04-29T16:16:54.548Z,43.20
2018-04-29T16:19:22.797Z,43.20
2018-04-29T16:21:51.108Z,43.20
2018-04-29T16:24:19.929Z,43.40
2018-04-29T16:26:48.172Z,43.40
2018-04-29T16:29:16.764Z,43.30
2018-04-29T16:31:45.006Z,42.90
2018-04-29T16:34:13.646Z,42.70
2018-04-29T16:36:41.908Z,42.70
2018-04-29T16:39:10.404Z,42.60
2018-04-29T16:41:38.629Z,42.40
2018-04-29T16:44:07.661Z,42.00
2018-04-29T16:46:35.968Z,42.00
2018-04-29T16:49:04.956Z,41.60
2018-04-29T16:51:33.647Z,41.00
2018-04-29T16:54:02.012Z,40.60
2018-04-29T16:56:30.402Z,40.20
2018-04-29T16:58:58.812Z,39.40
2018-04-29T17:01:28.679Z,38.00
2018-04-29T17:03:56.932Z,37.90
2018-04-29T17:06:25.339Z,38.20
2018-04-29T17:08:53.565Z,38.80
2018-04-29T17:11:22.583Z,39.60
2018-04-29T17:13:50.977Z,39.60
2018-04-29T17:16:19.224Z,39.30
2018-04-29T17:18:47.843Z,38.60
2018-04-29T17:21:16.099Z,37.80
2018-04-29T17:23:44.350Z,37.20
2018-04-29T17:26:12.855Z,36.50
2018-04-29T17:28:41.246Z,35.80
2018-04-29T17:31:09.596Z,35.40
2018-04-29T17:33:37.920Z,34.90
2018-04-29T17:36:07.000Z,34.40
2018-04-29T17:38:35.360Z,33.90
2018-04-29T17:41:03.613Z,33.60
2018-04-29T17:43:31.893Z,33.20
2018-04-29T17:46:01.439Z,33.00
2018-04-29T17:48:29.750Z,32.70
2018-04-29T17:50:58.144Z,32.50
2018-04-29T17:53:26.383Z,32.20
2018-04-29T17:55:54.628Z,32.00
2018-04-29T17:58:23.343Z,31.90
2018-04-29T18:00:51.592Z,31.70
2018-04-29T18:03:19.843Z,31.50
2018-04-29T18:05:48.144Z,31.30
2018-04-29T18:08:16.487Z,31.10
2018-04-29T18:10:44.860Z,30.90
2018-04-29T18:13:13.128Z,30.70
2018-04-29T18:15:41.496Z,30.60
2018-04-29T18:18:09.721Z,30.40
2018-04-29T18:20:39.296Z,30.20
2018-04-29T18:23:07.545Z,30.10
2018-04-29T18:25:36.307Z,29.90
2018-04-29T18:28:04.585Z,29.70
2018-04-29T18:30:32.833Z,29.60
2018-04-29T18:33:01.845Z,29.30
2018-04-29T18:35:30.193Z,29.30
2018-04-29T18:37:58.440Z,29.20
2018-04-29T18:40:26.682Z,29.10
2018-04-29T18:42:56.946Z,28.90
2018-04-29T18:45:25.183Z,28.90
2018-04-29T18:47:53.444Z,28.80
2018-04-29T18:50:21.744Z,28.60
2018-04-29T18:52:50.977Z,28.40
2018-04-29T18:55:19.352Z,28.20
2018-04-29T18:57:47.772Z,28.10
2018-04-29T19:00:16.779Z,27.80
2018-04-29T19:02:45.308Z,27.80
2018-04-29T19:05:13.878Z,27.70
2018-04-29T19:07:42.137Z,27.70
2018-04-29T19:10:10.385Z,27.70
2018-04-29T19:12:38.659Z,27.50
2018-04-29T19:15:07.736Z,27.30
2018-04-29T19:17:36.308Z,27.30
2018-04-29T19:20:04.628Z,27.20
2018-04-29T19:22:32.863Z,27.10
2018-04-29T19:25:01.101Z,27.00
2018-04-29T19:27:29.958Z,26.90
2018-04-29T19:29:58.977Z,26.70
2018-04-29T19:32:27.223Z,26.70
2018-04-29T19:34:56.256Z,26.50
2018-04-29T19:37:24.504Z,26.50
2018-04-29T19:39:53.027Z,26.50
2018-04-29T19:42:21.293Z,26.40
2018-04-29T19:44:49.545Z,26.30
2018-04-29T19:47:17.973Z,26.20
2018-04-29T19:49:46.569Z,26.10
2018-04-29T19:52:14.793Z,26.00
2018-04-29T19:54:43.305Z,25.90
2018-04-29T19:57:12.007Z,25.90
2018-04-29T19:59:40.248Z,25.80
2018-04-29T20:02:08.512Z,25.70
2018-04-29T20:04:36.780Z,25.60
2018-04-29T20:07:05.798Z,25.40
2018-04-29T20:09:34.307Z,25.40
2018-04-29T20:12:02.872Z,25.30
2018-04-29T20:14:31.141Z,25.30
2018-04-29T20:16:59.385Z,25.20
2018-04-29T20:19:28.428Z,25.10
2018-04-29T20:21:56.672Z,25.10
2018-04-29T20:24:25.002Z,25.00
2018-04-29T20:26:53.281Z,24.90
2018-04-29T20:29:21.804Z,24.90
2018-04-29T20:31:50.817Z,24.80
2018-04-29T20:34:19.907Z,24.70
2018-04-29T20:36:48.165Z,24.70
2018-04-29T20:39:17.176Z,24.60
2018-04-29T20:41:45.457Z,24.60
2018-04-29T20:44:13.712Z,24.60
2018-04-29T20:46:42.804Z,24.50
2018-04-29T20:49:11.000Z,24.50
2018-04-29T20:51:39.255Z,24.50
2018-04-29T20:54:07.505Z,24.40
2018-04-29T20:56:37.076Z,24.30
2018-04-29T20:59:05.336Z,24.20
2018-04-29T21:01:33.593Z,24.20
2018-04-29T21:04:02.744Z,24.00
2018-04-29T21:06:31.297Z,24.00
2018-04-29T21:08:59.549Z,24.00
2018-04-29T21:11:28.589Z,23.80
2018-04-29T21:13:56.845Z,23.80
2018-04-29T21:16:25.088Z,23.80
2018-04-29T21:18:53.720Z,23.70
2018-04-29T21:21:21.980Z,23.70
2018-04-29T21:23:50.232Z,23.60
2018-04-29T21:26:19.932Z,23.50
2018-04-29T21:28:48.188Z,23.50
2018-04-29T21:31:16.908Z,23.50
2018-04-29T21:33:45.176Z,23.40
2018-04-29T21:36:14.201Z,23.30
2018-04-29T21:38:42.556Z,23.30
2018-04-29T21:41:11.908Z,23.20
2018-04-29T21:43:40.161Z,23.20
2018-04-29T21:46:08.412Z,23.20
2018-04-29T21:48:37.458Z,23.00
2018-04-29T21:51:07.019Z,23.00
2018-04-29T21:53:35.251Z,22.90
2018-04-29T21:56:03.522Z,22.90
2018-04-29T21:58:32.036Z,22.80
2018-04-29T22:01:01.065Z,22.80
2018-04-29T22:03:29.772Z,22.80
2018-04-29T22:05:58.013Z,22.70
2018-04-29T22:08:26.260Z,22.70
2018-04-29T22:10:54.524Z,22.60
2018-04-29T22:13:22.788Z,22.50
2018-04-29T22:15:52.477Z,22.50
2018-04-29T22:18:20.744Z,22.40
2018-04-29T22:20:48.999Z,22.40
2018-04-29T22:23:18.635Z,22.30
2018-04-29T22:25:47.090Z,22.20
2018-04-29T22:28:16.107Z,22.20
2018-04-29T22:30:44.357Z,22.20
2018-04-29T22:33:13.732Z,22.10
2018-04-29T22:35:41.980Z,22.10
2018-04-29T22:38:10.241Z,22.10
2018-04-29T22:40:38.515Z,22.00
2018-04-29T22:43:06.764Z,21.90
2018-04-29T22:45:35.017Z,21.90
2018-04-29T22:48:03.360Z,21.90
2018-04-29T22:50:31.901Z,21.80
2018-04-29T22:53:00.144Z,21.70
2018-04-29T22:55:28.553Z,21.70
2018-04-29T22:57:56.784Z,21.70
2018-04-29T23:00:25.029Z,21.60
2018-04-29T23:02:53.308Z,21.50
2018-04-29T23:05:21.664Z,21.50
2018-04-29T23:07:51.164Z,21.40
2018-04-29T23:10:20.008Z,21.40
2018-04-29T23:12:49.329Z,21.40
2018-04-29T23:15:17.591Z,21.40
2018-04-29T23:17:46.016Z,21.30
2018-04-29T23:20:15.037Z,21.20
2018-04-29T23:22:43.293Z,21.20
2018-04-29T23:25:11.559Z,21.10
2018-04-29T23:27:39.816Z,21.10
2018-04-29T23:30:08.061Z,21.00
2018-04-29T23:32:36.717Z,21.00
2018-04-29T23:35:05.294Z,21.00
2018-04-29T23:37:34.315Z,20.90
2018-04-29T23:40:02.581Z,20.90
2018-04-29T23:42:30.837Z,20.80
2018-04-29T23:44:59.436Z,20.80
2018-04-29T23:47:27.778Z,20.80
2018-04-29T23:49:55.948Z,20.80
2018-04-29T23:52:24.214Z,20.70
2018-04-29T23:54:52.534Z,20.70
2018-04-29T23:57:20.775Z,20.70
2018-04-29T23:59:49.792Z,20.70
